EDLP/PAD METAR and TAF weather

Enter ICAO airport designator
Station Type Date Time Source
EDLP METAR 2021/01/20 21:50 UTC NOAA

EDLP 202150Z 17013KT CAVOK 08/01 Q0996


Station Type Date Time Source
EDLP Decoded METAR 2021/01/20 21:50 UTC NOAA

Paderborn / Lippstadt, Germany (EDLP) 51-37N 008-37E
Jan 20, 2021 - 04:50 PM EST / 2021.01.20 2150 UTC
Wind: from the S (170 degrees) at 15 MPH (13 KT):0
Visibility: greater than 7 mile(s):0
Temperature: 46 F (8 C)
Dew Point: 33 F (1 C)
Relative Humidity: 61%
Pressure (altimeter): 29.41 in. Hg (0996 hPa)
ob: EDLP 202150Z 17013KT CAVOK 08/01 Q0996
cycle: 22

Station Type Date Time Source
EDLP TAF 2021/01/20 18:28 UTC NOAA

TAF EDLP 201700Z 2018/2118 17015G25KT CAVOK
BECMG 2101/2104 19020G35KT
TEMPO 2104/2108 21025G45KT
TEMPO 2106/2109 RA
BECMG 2114/2117 20015G25KT

Example: see airport list